createdAt,value
2023-04-16T00:02:03.339Z,5.40
2023-04-16T00:04:32.964Z,5.40
2023-04-16T00:07:02.573Z,5.40
2023-04-16T00:09:32.088Z,5.40
2023-04-16T00:12:01.466Z,5.40
2023-04-16T00:14:29.185Z,5.40
2023-04-16T00:16:57.655Z,5.40
2023-04-16T00:19:24.873Z,5.40
2023-04-16T00:21:54.469Z,5.40
2023-04-16T00:24:21.731Z,5.30
2023-04-16T00:26:56.540Z,5.40
2023-04-16T00:29:24.913Z,5.30
2023-04-16T00:31:56.823Z,5.30
2023-04-16T00:34:29.122Z,5.30
2023-04-16T00:37:01.579Z,5.30
2023-04-16T00:39:28.872Z,5.30
2023-04-16T00:42:03.156Z,5.20
2023-04-16T00:44:31.584Z,5.20
2023-04-16T00:47:07.521Z,5.20
2023-04-16T00:49:42.275Z,5.20
2023-04-16T00:52:14.125Z,5.20
2023-04-16T00:54:45.559Z,5.20
2023-04-16T00:57:15.087Z,5.30
2023-04-16T00:59:49.934Z,5.20
2023-04-16T01:02:20.874Z,5.20
2023-04-16T01:04:56.122Z,5.20
2023-04-16T01:07:31.114Z,5.20
2023-04-16T01:10:12.904Z,5.20
2023-04-16T01:12:45.990Z,5.20
2023-04-16T01:15:18.198Z,5.20
2023-04-16T01:17:54.647Z,5.20
2023-04-16T01:20:23.116Z,5.20
2023-04-16T01:22:55.016Z,5.20
2023-04-16T01:25:25.215Z,5.20
2023-04-16T01:27:54.901Z,5.20
2023-04-16T01:30:22.137Z,5.20
2023-04-16T01:33:08.132Z,5.20
2023-04-16T01:35:37.978Z,5.20
2023-04-16T01:38:05.532Z,5.20
2023-04-16T01:40:32.822Z,5.20
2023-04-16T01:43:00.482Z,5.20
2023-04-16T01:45:27.838Z,5.20
2023-04-16T01:47:57.657Z,5.30
2023-04-16T01:50:32.605Z,5.20
2023-04-16T01:53:02.099Z,5.20
2023-04-16T01:55:29.357Z,5.20
2023-04-16T01:57:56.693Z,5.20
2023-04-16T02:00:27.326Z,5.20
2023-04-16T02:02:56.074Z,5.20
2023-04-16T02:05:27.817Z,5.20
2023-04-16T02:08:01.414Z,5.30
2023-04-16T02:10:41.860Z,5.20
2023-04-16T02:13:09.450Z,5.20
2023-04-16T02:15:37.824Z,5.30
2023-04-16T02:18:07.834Z,5.20
2023-04-16T02:20:40.317Z,5.30
2023-04-16T02:23:09.237Z,5.20
2023-04-16T02:25:41.415Z,5.30
2023-04-16T02:28:16.369Z,5.20
2023-04-16T02:30:45.808Z,5.30
2023-04-16T02:33:18.767Z,5.30
2023-04-16T02:35:55.475Z,5.20
2023-04-16T02:38:22.659Z,5.20
2023-04-16T02:40:50.971Z,5.30
2023-04-16T02:43:18.549Z,5.30
2023-04-16T02:45:45.839Z,5.20
2023-04-16T02:48:13.358Z,5.20
2023-04-16T02:50:40.664Z,5.20
2023-04-16T02:53:07.882Z,5.20
2023-04-16T02:55:35.053Z,5.20
2023-04-16T02:58:02.247Z,5.20
2023-04-16T03:00:29.597Z,5.20
2023-04-16T03:02:57.085Z,5.20
2023-04-16T03:05:24.539Z,5.20
2023-04-16T03:07:56.515Z,5.20
2023-04-16T03:10:24.157Z,5.20
2023-04-16T03:12:51.392Z,5.20
2023-04-16T03:15:18.564Z,5.20
2023-04-16T03:17:45.989Z,5.20
2023-04-16T03:20:14.364Z,5.30
2023-04-16T03:22:42.053Z,5.20
2023-04-16T03:25:09.182Z,5.20
2023-04-16T03:27:36.379Z,5.20
2023-04-16T03:30:04.739Z,5.30
2023-04-16T03:32:33.893Z,5.20
2023-04-16T03:35:02.023Z,5.20
2023-04-16T03:37:29.322Z,5.30
2023-04-16T03:39:56.848Z,5.30
2023-04-16T03:42:24.077Z,5.20
2023-04-16T03:44:52.949Z,5.30
2023-04-16T03:47:21.959Z,5.20
2023-04-16T03:49:50.910Z,5.30
2023-04-16T03:52:18.947Z,5.30
2023-04-16T03:54:46.301Z,5.20
2023-04-16T03:57:32.041Z,5.20
2023-04-16T04:00:06.369Z,5.20
2023-04-16T04:02:41.687Z,5.20
2023-04-16T04:05:15.455Z,5.20
2023-04-16T04:07:43.798Z,5.20
2023-04-16T04:10:11.124Z,5.20
2023-04-16T04:12:41.300Z,5.20
2023-04-16T04:15:08.892Z,5.20
2023-04-16T04:17:36.204Z,5.20
2023-04-16T04:20:03.946Z,5.20
2023-04-16T04:22:32.335Z,5.10
2023-04-16T04:25:02.508Z,5.20
2023-04-16T04:27:32.515Z,5.20
2023-04-16T04:30:01.148Z,5.20
2023-04-16T04:32:28.832Z,5.20
2023-04-16T04:35:00.460Z,5.20
2023-04-16T04:37:30.061Z,5.20
2023-04-16T04:39:57.198Z,5.10
2023-04-16T04:42:27.908Z,5.20
2023-04-16T04:44:55.936Z,5.10
2023-04-16T04:47:24.372Z,5.10
2023-04-16T04:49:55.889Z,5.10
2023-04-16T04:52:28.099Z,5.10
2023-04-16T04:54:57.514Z,5.20
2023-04-16T04:57:24.861Z,5.20
2023-04-16T04:59:57.370Z,5.20
2023-04-16T05:02:30.308Z,5.20
2023-04-16T05:04:57.590Z,5.10
2023-04-16T05:07:24.902Z,5.10
2023-04-16T05:09:52.413Z,5.10
2023-04-16T05:12:19.826Z,5.10
2023-04-16T05:14:47.318Z,5.20
2023-04-16T05:17:14.897Z,5.20
2023-04-16T05:19:43.812Z,5.20
2023-04-16T05:22:11.280Z,5.20
2023-04-16T05:24:38.871Z,5.20
2023-04-16T05:27:06.581Z,5.20
2023-04-16T05:29:34.048Z,5.20
2023-04-16T05:32:02.042Z,5.20
2023-04-16T05:34:29.740Z,5.30
2023-04-16T05:36:57.134Z,5.30
2023-04-16T05:39:24.810Z,5.30
2023-04-16T05:41:52.196Z,5.30
2023-04-16T05:44:19.717Z,5.30
2023-04-16T05:46:47.211Z,5.30
2023-04-16T05:49:14.684Z,5.30
2023-04-16T05:51:46.076Z,5.30
2023-04-16T05:54:13.584Z,5.30
2023-04-16T05:56:41.057Z,5.30
2023-04-16T05:59:08.456Z,5.30
2023-04-16T06:01:38.153Z,5.30
2023-04-16T06:04:05.512Z,5.30
2023-04-16T06:06:32.673Z,5.30
2023-04-16T06:08:59.653Z,5.30
2023-04-16T06:11:27.489Z,5.30
2023-04-16T06:13:54.584Z,5.30
2023-04-16T06:16:21.864Z,5.30
2023-04-16T06:18:48.839Z,5.30
2023-04-16T06:21:16.142Z,5.40
2023-04-16T06:23:43.099Z,5.40
2023-04-16T06:26:11.417Z,5.50
2023-04-16T06:28:38.449Z,5.50
2023-04-16T06:31:05.634Z,5.50
2023-04-16T06:33:32.780Z,5.50
2023-04-16T06:35:59.788Z,5.50
2023-04-16T06:38:26.821Z,5.60
2023-04-16T06:40:55.084Z,5.60
2023-04-16T06:43:22.346Z,5.60
2023-04-16T06:45:49.967Z,5.60
2023-04-16T06:48:17.064Z,5.60
2023-04-16T06:50:44.192Z,5.60
2023-04-16T06:53:11.213Z,5.60
2023-04-16T06:55:38.333Z,5.60
2023-04-16T06:58:05.562Z,5.70
2023-04-16T07:00:32.555Z,5.70
2023-04-16T07:03:01.217Z,5.70
2023-04-16T07:05:28.370Z,5.70
2023-04-16T07:07:57.503Z,5.80
2023-04-16T07:10:24.549Z,5.80
2023-04-16T07:12:51.812Z,5.80
2023-04-16T07:15:18.829Z,5.80
2023-04-16T07:17:45.814Z,5.90
2023-04-16T07:20:12.802Z,5.80
2023-04-16T07:22:39.834Z,5.80
2023-04-16T07:25:07.035Z,5.80
2023-04-16T07:27:34.315Z,5.80
2023-04-16T07:30:01.570Z,5.80
2023-04-16T07:32:28.727Z,5.80
2023-04-16T07:34:56.322Z,5.80
2023-04-16T07:37:23.369Z,5.80
2023-04-16T07:39:51.610Z,5.80
2023-04-16T07:42:18.776Z,5.80
2023-04-16T07:44:46.280Z,5.90
2023-04-16T07:47:13.359Z,5.90
2023-04-16T07:49:40.593Z,5.90
2023-04-16T07:52:07.610Z,5.90
2023-04-16T07:54:34.649Z,5.90
2023-04-16T07:57:01.687Z,5.90
2023-04-16T07:59:28.874Z,6.00
2023-04-16T08:01:56.389Z,6.00
2023-04-16T08:04:25.506Z,6.00
2023-04-16T08:06:53.439Z,6.00
2023-04-16T08:09:21.555Z,6.00
2023-04-16T08:11:49.710Z,6.00
2023-04-16T08:14:16.961Z,6.10
2023-04-16T08:16:44.231Z,6.10
2023-04-16T08:19:11.323Z,6.20
2023-04-16T08:21:38.816Z,6.20
2023-04-16T08:24:05.981Z,6.30
2023-04-16T08:26:35.831Z,6.30
2023-04-16T08:29:02.856Z,6.30
2023-04-16T08:31:29.888Z,6.40
2023-04-16T08:33:56.885Z,6.40
2023-04-16T08:36:23.905Z,6.50
2023-04-16T08:38:52.143Z,6.50
2023-04-16T08:41:22.382Z,6.60
2023-04-16T08:43:49.666Z,6.60
2023-04-16T08:46:17.322Z,6.60
2023-04-16T08:48:44.392Z,6.70
2023-04-16T08:51:11.890Z,6.80
2023-04-16T08:53:43.465Z,6.80
2023-04-16T08:56:11.376Z,6.90
2023-04-16T08:58:38.362Z,7.00
2023-04-16T09:01:05.559Z,7.10
2023-04-16T09:03:35.549Z,7.10
2023-04-16T09:06:03.584Z,7.10
2023-04-16T09:08:30.922Z,7.20
2023-04-16T09:10:57.968Z,7.20
2023-04-16T09:13:25.371Z,7.30
2023-04-16T09:15:57.093Z,7.30
2023-04-16T09:18:24.379Z,7.40
2023-04-16T09:20:51.461Z,7.40
2023-04-16T09:23:18.710Z,7.40
2023-04-16T09:25:45.988Z,7.40
2023-04-16T09:28:13.018Z,7.50
2023-04-16T09:30:40.035Z,7.50
2023-04-16T09:33:16.466Z,7.60
2023-04-16T09:35:50.304Z,7.60
2023-04-16T09:38:17.360Z,7.60
2023-04-16T09:40:44.371Z,7.70
2023-04-16T09:43:15.442Z,7.70
2023-04-16T09:45:52.530Z,7.70
2023-04-16T09:48:29.757Z,7.80
2023-04-16T09:50:57.183Z,7.80
2023-04-16T09:53:25.596Z,7.80
2023-04-16T09:55:53.212Z,7.80
2023-04-16T09:58:20.702Z,7.80
2023-04-16T10:00:47.769Z,7.80
2023-04-16T10:03:14.977Z,7.90
2023-04-16T10:05:42.020Z,7.90
2023-04-16T10:08:13.003Z,7.90
2023-04-16T10:10:40.152Z,7.90
2023-04-16T10:13:07.180Z,7.90
2023-04-16T10:15:34.285Z,7.90
2023-04-16T10:18:01.326Z,7.80
2023-04-16T10:20:28.407Z,7.80
2023-04-16T10:22:55.952Z,7.80
2023-04-16T10:25:22.933Z,7.80
2023-04-16T10:27:49.917Z,7.80
2023-04-16T10:30:16.989Z,7.80
2023-04-16T10:32:44.477Z,7.80
2023-04-16T10:35:15.174Z,7.90
2023-04-16T10:37:42.188Z,7.90
2023-04-16T10:40:25.100Z,7.90
2023-04-16T10:42:55.803Z,7.90
2023-04-16T10:45:32.730Z,8.00
2023-04-16T10:47:59.842Z,8.10
2023-04-16T10:50:34.055Z,8.10
2023-04-16T10:53:23.062Z,8.10
2023-04-16T10:55:56.871Z,8.10
2023-04-16T10:58:27.531Z,8.10
2023-04-16T11:00:54.765Z,8.10
2023-04-16T11:03:21.923Z,8.20
2023-04-16T11:05:49.082Z,8.20
2023-04-16T11:08:16.331Z,8.20
2023-04-16T11:10:43.337Z,8.30
2023-04-16T11:13:10.623Z,8.30
2023-04-16T11:15:37.666Z,8.30
2023-04-16T11:18:06.844Z,8.30
2023-04-16T11:20:33.859Z,8.30
2023-04-16T11:23:01.015Z,8.40
2023-04-16T11:25:31.746Z,8.40
2023-04-16T11:27:59.122Z,8.50
2023-04-16T11:30:36.390Z,8.50
2023-04-16T11:33:12.558Z,8.60
2023-04-16T11:35:39.677Z,8.60
2023-04-16T11:38:07.311Z,8.50
2023-04-16T11:40:34.550Z,8.50
2023-04-16T11:43:02.607Z,8.50
2023-04-16T11:45:29.741Z,8.50
2023-04-16T11:47:57.760Z,8.50
2023-04-16T11:50:25.438Z,8.40
2023-04-16T11:52:53.386Z,8.40
2023-04-16T11:55:20.681Z,8.40
2023-04-16T11:57:47.718Z,8.30
2023-04-16T12:00:15.069Z,8.40
2023-04-16T12:02:46.075Z,8.40
2023-04-16T12:05:29.185Z,8.50
2023-04-16T12:07:56.655Z,8.50
2023-04-16T12:10:23.739Z,8.60
2023-04-16T12:12:51.068Z,8.60
2023-04-16T12:15:18.068Z,8.60
2023-04-16T12:17:45.091Z,8.60
2023-04-16T12:20:12.665Z,8.60
2023-04-16T12:22:40.175Z,8.60
2023-04-16T12:25:08.393Z,8.50
2023-04-16T12:27:50.676Z,8.50
2023-04-16T12:30:20.660Z,8.40
2023-04-16T12:32:48.881Z,8.40
2023-04-16T12:35:36.145Z,8.50
2023-04-16T12:38:03.552Z,8.40
2023-04-16T12:40:30.635Z,8.40
2023-04-16T12:42:57.876Z,8.40
2023-04-16T12:45:24.929Z,8.40
2023-04-16T12:47:52.157Z,8.40
2023-04-16T12:50:19.172Z,8.30
2023-04-16T12:52:46.402Z,8.30
2023-04-16T12:55:14.143Z,8.40
2023-04-16T12:57:41.284Z,8.30
2023-04-16T13:00:08.545Z,8.40
2023-04-16T13:02:35.806Z,8.40
2023-04-16T13:05:02.892Z,8.40
2023-04-16T13:07:32.204Z,8.40
2023-04-16T13:09:59.542Z,8.40
2023-04-16T13:12:27.172Z,8.30
2023-04-16T13:14:54.967Z,8.40
2023-04-16T13:17:22.145Z,8.30
2023-04-16T13:19:49.147Z,8.30
2023-04-16T13:22:16.397Z,8.30
2023-04-16T13:24:43.554Z,8.30
2023-04-16T13:27:11.488Z,8.30
2023-04-16T13:29:38.509Z,8.30
2023-04-16T13:32:05.748Z,8.20
2023-04-16T13:34:32.763Z,8.20
2023-04-16T13:36:59.979Z,8.20
2023-04-16T13:39:27.072Z,8.20
2023-04-16T13:41:54.085Z,8.20
2023-04-16T13:44:21.367Z,8.20
2023-04-16T13:46:48.375Z,8.20
2023-04-16T13:49:15.395Z,8.10
2023-04-16T13:51:45.857Z,8.20
2023-04-16T13:54:12.909Z,8.10
2023-04-16T13:56:39.907Z,8.10
2023-04-16T13:59:07.118Z,8.10
2023-04-16T14:01:34.077Z,8.10
2023-04-16T14:04:05.916Z,8.10
2023-04-16T14:06:33.586Z,8.10
2023-04-16T14:09:01.482Z,8.10
2023-04-16T14:11:28.538Z,8.10
2023-04-16T14:13:55.783Z,8.10
2023-04-16T14:16:22.919Z,8.10
2023-04-16T14:18:51.710Z,8.10
2023-04-16T14:21:18.970Z,8.10
2023-04-16T14:23:46.234Z,8.20
2023-04-16T14:26:13.420Z,8.20
2023-04-16T14:28:41.049Z,8.20
2023-04-16T14:31:08.017Z,8.20
2023-04-16T14:33:34.968Z,8.20
2023-04-16T14:36:03.206Z,8.20
2023-04-16T14:38:31.542Z,8.30
2023-04-16T14:41:00.104Z,8.30
2023-04-16T14:43:27.372Z,8.30
2023-04-16T14:45:54.449Z,8.30
2023-04-16T14:48:22.059Z,8.30
2023-04-16T14:50:49.154Z,8.30
2023-04-16T14:53:16.463Z,8.30
2023-04-16T14:55:43.973Z,8.40
2023-04-16T14:58:10.929Z,8.40
2023-04-16T15:00:38.088Z,8.40
2023-04-16T15:03:05.673Z,8.40
2023-04-16T15:05:32.904Z,8.40
2023-04-16T15:08:00.503Z,8.40
2023-04-16T15:10:27.570Z,8.40
2023-04-16T15:12:54.801Z,8.40
2023-04-16T15:15:22.084Z,8.40
2023-04-16T15:17:50.888Z,8.40
2023-04-16T15:20:18.082Z,8.40
2023-04-16T15:22:45.096Z,8.40
2023-04-16T15:25:12.371Z,8.40
2023-04-16T15:27:39.428Z,8.50
2023-04-16T15:30:07.184Z,8.50
2023-04-16T15:32:34.190Z,8.40
2023-04-16T15:35:02.322Z,8.40
2023-04-16T15:37:29.595Z,8.40
2023-04-16T15:39:56.771Z,8.40
2023-04-16T15:42:24.067Z,8.40
2023-04-16T15:44:51.052Z,8.50
2023-04-16T15:47:18.012Z,8.40
2023-04-16T15:49:45.256Z,8.40
2023-04-16T15:52:12.289Z,8.40
2023-04-16T15:54:39.382Z,8.40
2023-04-16T15:57:06.453Z,8.40
2023-04-16T15:59:33.447Z,8.40
2023-04-16T16:02:00.961Z,8.40
2023-04-16T16:04:28.710Z,8.40
2023-04-16T16:06:56.191Z,8.40
2023-04-16T16:09:26.535Z,8.40
2023-04-16T16:11:58.422Z,8.40
2023-04-16T16:14:26.712Z,8.30
2023-04-16T16:16:53.840Z,8.40
2023-04-16T16:19:21.052Z,8.30
2023-04-16T16:21:48.054Z,8.30
2023-04-16T16:24:15.442Z,8.30
2023-04-16T16:26:42.529Z,8.30
2023-04-16T16:29:09.840Z,8.30
2023-04-16T16:31:36.991Z,8.20
2023-04-16T16:34:03.988Z,8.20
2023-04-16T16:36:32.408Z,8.30
2023-04-16T16:38:59.496Z,8.20
2023-04-16T16:41:26.528Z,8.20
2023-04-16T16:43:56.132Z,8.20
2023-04-16T16:46:23.404Z,8.20
2023-04-16T16:48:50.453Z,8.20
2023-04-16T16:51:18.865Z,8.20
2023-04-16T16:53:46.226Z,8.20
2023-04-16T16:56:13.187Z,8.20
2023-04-16T16:58:40.402Z,8.20
2023-04-16T17:01:07.544Z,8.20
2023-04-16T17:03:34.621Z,8.20
2023-04-16T17:06:01.663Z,8.10
2023-04-16T17:08:28.988Z,8.10
2023-04-16T17:10:56.070Z,8.00
2023-04-16T17:13:24.993Z,8.00
2023-04-16T17:15:52.027Z,8.00
2023-04-16T17:18:19.238Z,7.90
2023-04-16T17:20:46.240Z,7.90
2023-04-16T17:23:14.242Z,7.90
2023-04-16T17:25:41.529Z,7.90
2023-04-16T17:28:08.528Z,7.90
2023-04-16T17:30:36.068Z,7.90
2023-04-16T17:33:04.459Z,7.80
2023-04-16T17:35:31.681Z,7.80
2023-04-16T17:37:58.729Z,7.80
2023-04-16T17:40:25.707Z,7.80
2023-04-16T17:42:52.722Z,7.80
2023-04-16T17:45:19.738Z,7.70
2023-04-16T17:47:46.756Z,7.70
2023-04-16T17:50:13.826Z,7.70
2023-04-16T17:52:41.177Z,7.60
2023-04-16T17:55:08.350Z,7.60
2023-04-16T17:57:35.359Z,7.60
2023-04-16T18:00:03.119Z,7.60
2023-04-16T18:02:41.965Z,7.60
2023-04-16T18:05:09.280Z,7.50
2023-04-16T18:07:37.434Z,7.50
2023-04-16T18:10:05.042Z,7.50
2023-04-16T18:12:32.630Z,7.40
2023-04-16T18:14:59.731Z,7.40
2023-04-16T18:17:26.714Z,7.40
2023-04-16T18:19:53.702Z,7.40
2023-04-16T18:22:21.001Z,7.40
2023-04-16T18:24:48.003Z,7.40
2023-04-16T18:27:15.171Z,7.40
2023-04-16T18:29:45.025Z,7.40
2023-04-16T18:32:12.593Z,7.40
2023-04-16T18:34:39.996Z,7.40
2023-04-16T18:37:07.338Z,7.40
2023-04-16T18:39:34.407Z,7.40
2023-04-16T18:42:01.524Z,7.40
2023-04-16T18:44:28.503Z,7.30
2023-04-16T18:46:55.780Z,7.30
2023-04-16T18:49:23.015Z,7.30
2023-04-16T18:51:50.239Z,7.30
2023-04-16T18:54:17.251Z,7.30
2023-04-16T18:56:44.944Z,7.30
2023-04-16T18:59:12.093Z,7.30
2023-04-16T19:01:39.353Z,7.20
2023-04-16T19:04:06.496Z,7.20
2023-04-16T19:06:33.596Z,7.20
2023-04-16T19:09:00.811Z,7.20
2023-04-16T19:11:27.774Z,7.20
2023-04-16T19:13:54.856Z,7.20
2023-04-16T19:16:21.874Z,7.20
2023-04-16T19:18:48.960Z,7.20
2023-04-16T19:21:16.163Z,7.20
2023-04-16T19:23:43.212Z,7.20
2023-04-16T19:26:10.230Z,7.20
2023-04-16T19:28:38.582Z,7.20
2023-04-16T19:31:06.572Z,7.20
2023-04-16T19:33:33.856Z,7.20
2023-04-16T19:36:01.729Z,7.20
2023-04-16T19:38:29.054Z,7.20
2023-04-16T19:40:56.018Z,7.20
2023-04-16T19:43:23.425Z,7.20
2023-04-16T19:45:53.530Z,7.20
2023-04-16T19:48:20.674Z,7.20
2023-04-16T19:50:47.932Z,7.20
2023-04-16T19:53:17.001Z,7.20
2023-04-16T19:55:44.037Z,7.20
2023-04-16T19:58:11.253Z,7.10
2023-04-16T20:00:38.559Z,7.10
2023-04-16T20:03:06.157Z,7.10
2023-04-16T20:05:33.446Z,7.10
2023-04-16T20:08:00.534Z,7.10
2023-04-16T20:10:27.742Z,7.10
2023-04-16T20:12:54.788Z,7.10
2023-04-16T20:15:22.016Z,7.10
2023-04-16T20:17:49.180Z,7.10
2023-04-16T20:20:16.323Z,7.00
2023-04-16T20:22:43.687Z,7.00
2023-04-16T20:25:11.274Z,6.90
2023-04-16T20:27:38.306Z,6.90
2023-04-16T20:30:06.232Z,6.90
2023-04-16T20:32:33.494Z,6.80
2023-04-16T20:35:01.842Z,6.80
2023-04-16T20:37:29.137Z,6.80
2023-04-16T20:39:56.275Z,6.80
2023-04-16T20:42:23.455Z,6.80
2023-04-16T20:44:55.898Z,6.80
2023-04-16T20:47:23.004Z,6.80
2023-04-16T20:49:50.448Z,6.80
2023-04-16T20:52:17.474Z,6.80
2023-04-16T20:54:44.509Z,6.70
2023-04-16T20:57:11.471Z,6.70
2023-04-16T20:59:38.493Z,6.70
2023-04-16T21:02:05.780Z,6.70
2023-04-16T21:04:32.925Z,6.70
2023-04-16T21:07:03.096Z,6.70
2023-04-16T21:09:30.821Z,6.60
2023-04-16T21:11:57.788Z,6.60
2023-04-16T21:14:24.765Z,6.60
2023-04-16T21:16:51.816Z,6.60
2023-04-16T21:19:18.885Z,6.60
2023-04-16T21:21:46.124Z,6.60
2023-04-16T21:24:13.171Z,6.60
2023-04-16T21:26:40.169Z,6.60
2023-04-16T21:29:07.335Z,6.60
2023-04-16T21:31:34.586Z,6.60
2023-04-16T21:34:01.588Z,6.60
2023-04-16T21:36:29.151Z,6.60
2023-04-16T21:38:56.406Z,6.70
2023-04-16T21:41:23.413Z,6.60
2023-04-16T21:43:50.370Z,6.60
2023-04-16T21:46:17.359Z,6.60
2023-04-16T21:48:44.809Z,6.60
2023-04-16T21:51:11.795Z,6.60
2023-04-16T21:53:39.215Z,6.60
2023-04-16T21:56:06.431Z,6.60
2023-04-16T21:58:33.651Z,6.60
2023-04-16T22:01:00.732Z,6.60
2023-04-16T22:03:30.262Z,6.60
2023-04-16T22:05:58.049Z,6.60
2023-04-16T22:08:27.124Z,6.60
2023-04-16T22:11:01.207Z,6.70
2023-04-16T22:13:29.894Z,6.70
2023-04-16T22:15:57.619Z,6.70
2023-04-16T22:18:25.716Z,6.60
2023-04-16T22:20:54.685Z,6.70
2023-04-16T22:23:24.803Z,6.70
2023-04-16T22:25:55.335Z,6.60
2023-04-16T22:28:22.380Z,6.60
2023-04-16T22:30:49.357Z,6.60
2023-04-16T22:33:16.439Z,6.60
2023-04-16T22:35:43.419Z,6.70
2023-04-16T22:38:10.561Z,6.60
2023-04-16T22:40:37.800Z,6.60
2023-04-16T22:43:04.890Z,6.60
2023-04-16T22:45:32.103Z,6.60
2023-04-16T22:47:59.169Z,6.60
2023-04-16T22:50:26.337Z,6.60
2023-04-16T22:52:53.359Z,6.60
2023-04-16T22:55:20.360Z,6.50
2023-04-16T22:57:47.643Z,6.50
2023-04-16T23:00:17.512Z,6.40
2023-04-16T23:02:44.857Z,6.40
2023-04-16T23:05:12.124Z,6.40
2023-04-16T23:07:39.465Z,6.40
2023-04-16T23:10:08.728Z,6.40
2023-04-16T23:12:39.229Z,6.40
2023-04-16T23:15:06.744Z,6.40
2023-04-16T23:17:34.847Z,6.30
2023-04-16T23:20:02.081Z,6.30
2023-04-16T23:22:29.255Z,6.30
2023-04-16T23:24:56.311Z,6.30
2023-04-16T23:27:23.357Z,6.20
2023-04-16T23:29:50.581Z,6.20
2023-04-16T23:32:17.603Z,6.20
2023-04-16T23:34:44.689Z,6.10
2023-04-16T23:37:11.680Z,6.10
2023-04-16T23:39:39.009Z,6.10
2023-04-16T23:42:06.314Z,6.10
2023-04-16T23:44:33.561Z,6.10
2023-04-16T23:47:00.708Z,6.00
2023-04-16T23:49:27.781Z,6.10
2023-04-16T23:51:54.996Z,6.10
2023-04-16T23:54:22.255Z,6.00
2023-04-16T23:56:49.389Z,6.10
2023-04-16T23:59:16.885Z,6.00
